Time,TemperatureF,DewpointF,PressureIn,WindDirection,WindDirectionDegrees,WindSpeedMPH,WindSpeedGustMPH,Humidity,HourlyPrecipIn,Conditions,Clouds,dailyrainin,SoftwareType,DateUTC
2013-03-14 00:02:00,31.3,11.7,30.15,NNW,338,2.5,3.0,44,0.00,,,0.00,WUHU216TE923,2013-03-14 04:02:00,
2013-03-14 00:06:00,31.3,11.7,30.15,NW,315,2.6,5.9,44,0.00,,,0.00,WUHU216TE923,2013-03-14 04:06:00,
2013-03-14 00:12:00,31.3,11.7,30.15,NW,315,2.6,5.9,44,0.00,,,0.00,WUHU216TE923,2013-03-14 04:12:00,
2013-03-14 00:16:00,30.9,11.4,30.15,NNE,23,2.3,5.9,44,0.00,,,0.00,WUHU216TE923,2013-03-14 04:16:00,
2013-03-14 00:22:00,30.9,11.4,30.15,North,0,2.5,3.1,44,0.00,,,0.00,WUHU216TE923,2013-03-14 04:22:00,
2013-03-14 00:26:00,30.9,11.4,30.16,NNW,338,2.5,2.5,44,0.00,,,0.00,WUHU216TE923,2013-03-14 04:26:00,
2013-03-14 00:32:00,30.9,11.4,30.16,NNE,23,2.5,2.7,44,0.00,,,0.00,WUHU216TE923,2013-03-14 04:32:00,
2013-03-14 00:36:00,30.7,11.2,30.16,West,270,1.8,2.7,44,0.00,,,0.00,WUHU216TE923,2013-03-14 04:36:00,
2013-03-14 00:46:00,30.6,11.1,30.14,West,270,1.5,3.3,44,0.00,,,0.00,WUHU216TE923,2013-03-14 04:46:00,
2013-03-14 00:56:00,30.4,10.9,30.14,NNE,23,1.5,3.0,44,0.00,,,0.00,WUHU216TE923,2013-03-14 04:56:00,
2013-03-14 01:02:00,30.4,11.4,30.14,East,90,1.7,3.0,45,0.00,,,0.00,WUHU216TE923,2013-03-14 05:02:00,
2013-03-14 01:06:00,30.2,11.3,30.15,NNW,338,2.3,2.3,45,0.00,,,0.00,WUHU216TE923,2013-03-14 05:06:00,
2013-03-14 01:12:00,30.0,11.1,30.15,NNW,338,1.9,2.3,45,0.00,,,0.00,WUHU216TE923,2013-03-14 05:12:00,
2013-03-14 01:16:00,30.0,10.6,30.15,North,0,1.0,2.1,44,0.00,,,0.00,WUHU216TE923,2013-03-14 05:16:00,
2013-03-14 01:22:00,29.8,10.4,30.15,NNE,23,1.2,2.1,44,0.00,,,0.00,WUHU216TE923,2013-03-14 05:22:00,
2013-03-14 01:26:00,29.7,10.3,30.15,NE,45,1.5,2.0,44,0.00,,,0.00,WUHU216TE923,2013-03-14 05:26:00,
2013-03-14 01:32:00,29.7,10.3,30.15,NNE,23,1.2,2.0,44,0.00,,,0.00,WUHU216TE923,2013-03-14 05:32:00,
2013-03-14 01:36:00,29.7,10.3,30.15,NE,45,1.1,2.6,44,0.00,,,0.00,WUHU216TE923,2013-03-14 05:36:00,
2013-03-14 01:42:00,29.7,10.3,30.15,ENE,68,1.6,3.3,44,0.00,,,0.00,WUHU216TE923,2013-03-14 05:42:00,
2013-03-14 01:46:00,29.7,10.3,30.15,NNE,23,2.0,4.0,44,0.00,,,0.00,WUHU216TE923,2013-03-14 05:46:00,
2013-03-14 01:56:00,29.7,10.8,30.15,NE,45,1.8,3.8,45,0.00,,,0.00,WUHU216TE923,2013-03-14 05:56:00,
2013-03-14 02:02:00,29.5,10.6,30.15,ENE,68,2.0,3.8,45,0.00,,,0.00,WUHU216TE923,2013-03-14 06:02:00,
2013-03-14 02:06:00,29.3,10.4,30.16,NNE,23,1.4,2.8,45,0.00,,,0.00,WUHU216TE923,2013-03-14 06:06:00,
2013-03-14 02:12:00,29.3,10.4,30.16,ENE,68,0.7,1.4,45,0.00,,,0.00,WUHU216TE923,2013-03-14 06:12:00,
2013-03-14 02:16:00,29.1,10.3,30.16,West,270,0.0,0.7,45,0.00,,,0.00,WUHU216TE923,2013-03-14 06:16:00,
2013-03-14 02:22:00,28.9,10.1,30.16,South,180,0.8,3.4,45,0.00,,,0.00,WUHU216TE923,2013-03-14 06:22:00,
2013-03-14 02:32:00,29.1,10.8,30.16,NNE,23,1.8,2.6,46,0.00,,,0.00,WUHU216TE923,2013-03-14 06:32:00,
2013-03-14 02:36:00,28.9,10.6,30.16,North,0,1.9,2.6,46,0.00,,,0.00,WUHU216TE923,2013-03-14 06:36:00,
2013-03-14 02:42:00,28.8,10.0,30.16,NE,45,1.5,2.3,45,0.00,,,0.00,WUHU216TE923,2013-03-14 06:42:00,
2013-03-14 02:46:00,28.6,10.3,30.16,NE,45,1.6,1.6,46,0.00,,,0.00,WUHU216TE923,2013-03-14 06:46:00,
2013-03-14 02:56:00,28.4,9.6,30.16,NNE,23,1.8,5.2,45,0.00,,,0.00,WUHU216TE923,2013-03-14 06:56:00,
2013-03-14 03:06:00,28.2,9.4,30.17,NNE,23,1.6,2.7,45,0.00,,,0.00,WUHU216TE923,2013-03-14 07:06:00,
2013-03-14 03:12:00,28.2,9.4,30.17,NNE,23,1.6,1.8,45,0.00,,,0.00,WUHU216TE923,2013-03-14 07:12:00,
2013-03-14 03:16:00,28.2,9.9,30.17,NNE,23,1.7,3.2,46,0.00,,,0.00,WUHU216TE923,2013-03-14 07:16:00,
2013-03-14 03:22:00,28.2,9.9,30.17,North,0,2.0,3.2,46,0.00,,,0.00,WUHU216TE923,2013-03-14 07:22:00,
2013-03-14 03:31:00,28.0,9.8,30.17,NW,315,1.6,3.0,46,0.00,,,0.00,WUHU216TE923,2013-03-14 07:31:00,
2013-03-14 03:41:00,28.0,9.8,30.17,NNE,23,2.0,3.7,46,0.00,,,0.00,WUHU216TE923,2013-03-14 07:41:00,
2013-03-14 03:47:00,28.0,10.2,30.17,NE,45,2.3,6.6,47,0.00,,,0.00,WUHU216TE923,2013-03-14 07:47:00,
2013-03-14 03:51:00,28.0,10.2,30.17,NNE,23,2.4,6.6,47,0.00,,,0.00,WUHU216TE923,2013-03-14 07:51:00,
2013-03-14 03:57:00,27.9,10.2,30.17,NNW,338,2.0,2.4,47,0.00,,,0.00,WUHU216TE923,2013-03-14 07:57:00,
2013-03-14 04:01:00,27.9,10.6,30.17,NE,45,1.5,2.2,48,0.00,,,0.00,WUHU216TE923,2013-03-14 08:01:00,
2013-03-14 04:07:00,27.9,10.6,30.17,NE,45,1.3,2.2,48,0.00,,,0.00,WUHU216TE923,2013-03-14 08:07:00,
2013-03-14 04:11:00,27.7,10.5,30.17,NNE,23,1.7,5.0,48,0.00,,,0.00,WUHU216TE923,2013-03-14 08:11:00,
2013-03-14 04:17:00,27.9,10.6,30.17,ESE,113,2.5,5.0,48,0.00,,,0.00,WUHU216TE923,2013-03-14 08:17:00,
2013-03-14 04:21:00,27.7,10.5,30.17,North,0,2.5,2.5,48,0.00,,,0.00,WUHU216TE923,2013-03-14 08:21:00,
2013-03-14 04:27:00,27.7,10.5,30.17,NNE,23,1.8,3.2,48,0.00,,,0.00,WUHU216TE923,2013-03-14 08:27:00,
2013-03-14 04:31:00,27.5,10.7,30.17,NNE,23,1.9,3.5,49,0.00,,,0.00,WUHU216TE923,2013-03-14 08:31:00,
2013-03-14 04:41:00,27.5,10.7,30.17,NNW,338,1.9,2.6,49,0.00,,,0.00,WUHU216TE923,2013-03-14 08:41:00,
2013-03-14 04:51:00,27.1,10.4,30.16,NNE,23,1.2,3.3,49,0.00,,,0.00,WUHU216TE923,2013-03-14 08:51:00,
2013-03-14 04:57:00,27.1,10.4,30.16,NE,45,1.3,1.8,49,0.00,,,0.00,WUHU216TE923,2013-03-14 08:57:00,
2013-03-14 05:01:00,27.1,10.4,30.16,NNE,23,1.5,2.7,49,0.00,,,0.00,WUHU216TE923,2013-03-14 09:01:00,
2013-03-14 05:07:00,27.1,10.8,30.16,NE,45,2.1,2.7,50,0.00,,,0.00,WUHU216TE923,2013-03-14 09:07:00,
2013-03-14 05:11:00,27.0,10.3,30.16,NNE,23,2.2,2.2,49,0.00,,,0.00,WUHU216TE923,2013-03-14 09:11:00,
2013-03-14 05:17:00,26.8,10.1,30.16,NNE,23,1.3,2.2,49,0.00,,,0.00,WUHU216TE923,2013-03-14 09:17:00,
2013-03-14 05:21:00,26.8,10.6,30.16,NE,45,1.2,2.2,50,0.00,,,0.00,WUHU216TE923,2013-03-14 09:21:00,
2013-03-14 05:27:00,26.8,10.6,30.16,NNE,23,1.6,1.8,50,0.00,,,0.00,WUHU216TE923,2013-03-14 09:27:00,
2013-03-14 05:31:00,26.8,10.6,30.16,NNW,338,1.6,2.0,50,0.00,,,0.00,WUHU216TE923,2013-03-14 09:31:00,
2013-03-14 05:37:00,26.8,10.6,30.16,NW,315,1.0,2.0,50,0.00,,,0.00,WUHU216TE923,2013-03-14 09:37:00,
2013-03-14 05:41:00,26.8,10.6,30.16,ENE,68,0.6,1.0,50,0.00,,,0.00,WUHU216TE923,2013-03-14 09:41:00,
2013-03-14 05:51:00,26.6,10.4,30.16,NNE,23,0.5,0.6,50,0.00,,,0.00,WUHU216TE923,2013-03-14 09:51:00,
2013-03-14 06:01:00,26.4,10.2,30.16,NNE,23,0.3,0.4,50,0.00,,,0.00,WUHU216TE923,2013-03-14 10:01:00,
2013-03-14 06:11:00,26.4,10.2,30.16,NNW,338,0.1,0.3,50,0.00,,,0.00,WUHU216TE923,2013-03-14 10:11:00,
2013-03-14 06:12:00,26.4,10.2,30.16,NNW,338,0.1,0.3,50,0.00,,,0.00,WUHU216TE923,2013-03-14 10:12:00,
2013-03-14 06:17:00,26.4,10.2,30.16,NNW,338,0.1,0.1,50,0.00,,,0.00,WUHU216TE923,2013-03-14 10:17:00,
2013-03-14 06:22:00,26.2,10.0,30.16,ENE,68,0.5,0.5,50,0.00,,,0.00,WUHU216TE923,2013-03-14 10:22:00,
2013-03-14 06:27:00,26.2,10.0,30.16,ENE,68,0.5,0.5,50,0.00,,,0.00,WUHU216TE923,2013-03-14 10:27:00,
2013-03-14 06:32:00,26.1,9.9,30.17,NNE,23,0.4,2.0,50,0.00,,,0.00,WUHU216TE923,2013-03-14 10:32:00,
2013-03-14 06:37:00,26.1,10.4,30.17,NE,45,0.4,2.0,51,0.00,,,0.00,WUHU216TE923,2013-03-14 10:37:00,
2013-03-14 06:42:00,26.2,10.5,30.17,ENE,68,0.7,1.4,51,0.00,,,0.00,WUHU216TE923,2013-03-14 10:42:00,
2013-03-14 06:47:00,26.1,10.4,30.17,East,90,0.7,1.3,51,0.00,,,0.00,WUHU216TE923,2013-03-14 10:47:00,
2013-03-14 06:52:00,26.2,10.9,30.18,NE,45,0.8,1.4,52,0.00,,,0.00,WUHU216TE923,2013-03-14 10:52:00,
2013-03-14 06:57:00,26.2,10.9,30.18,NNE,23,1.2,1.4,52,0.00,,,0.00,WUHU216TE923,2013-03-14 10:57:00,
2013-03-14 07:02:00,26.2,10.9,30.18,NE,45,1.1,1.4,52,0.00,,,0.00,WUHU216TE923,2013-03-14 11:02:00,
2013-03-14 07:07:00,26.2,10.9,30.18,NE,45,1.0,2.0,52,0.00,,,0.00,WUHU216TE923,2013-03-14 11:07:00,
2013-03-14 07:12:00,26.2,11.4,30.18,West,270,1.9,3.6,53,0.00,,,0.00,WUHU216TE923,2013-03-14 11:12:00,
2013-03-14 07:17:00,26.2,11.4,30.18,NNE,23,2.1,3.6,53,0.00,,,0.00,WUHU216TE923,2013-03-14 11:17:00,
2013-03-14 07:22:00,26.2,11.4,30.18,NW,315,2.2,2.4,53,0.00,,,0.00,WUHU216TE923,2013-03-14 11:22:00,
2013-03-14 07:27:00,26.1,11.3,30.18,NNE,23,2.4,3.3,53,0.00,,,0.00,WUHU216TE923,2013-03-14 11:27:00,
2013-03-14 07:32:00,26.2,11.8,30.19,NNE,23,2.8,3.5,54,0.00,,,0.00,WUHU216TE923,2013-03-14 11:32:00,
2013-03-14 07:37:00,26.2,11.8,30.19,NNE,23,2.9,3.5,54,0.00,,,0.00,WUHU216TE923,2013-03-14 11:37:00,
2013-03-14 07:42:00,26.2,11.8,30.19,North,0,3.3,5.3,54,0.00,,,0.00,WUHU216TE923,2013-03-14 11:42:00,
2013-03-14 07:47:00,26.2,11.8,30.19,North,0,3.3,5.3,54,0.00,,,0.00,WUHU216TE923,2013-03-14 11:47:00,
2013-03-14 07:52:00,26.1,11.7,30.19,North,0,4.1,5.4,54,0.00,,,0.00,WUHU216TE923,2013-03-14 11:52:00,
2013-03-14 07:57:00,26.1,11.7,30.19,North,0,4.1,5.4,54,0.00,,,0.00,WUHU216TE923,2013-03-14 11:57:00,
2013-03-14 08:02:00,25.9,11.5,30.19,NNE,23,3.4,5.3,54,0.00,,,0.00,WUHU216TE923,2013-03-14 12:02:00,
2013-03-14 08:07:00,25.9,11.5,30.19,NNE,23,3.4,5.3,54,0.00,,,0.00,WUHU216TE923,2013-03-14 12:07:00,
2013-03-14 08:12:00,26.2,11.8,30.20,NNE,23,2.7,3.0,54,0.00,,,0.00,WUHU216TE923,2013-03-14 12:12:00,
2013-03-14 08:17:00,26.2,11.8,30.20,NNE,23,2.7,3.0,54,0.00,,,0.00,WUHU216TE923,2013-03-14 12:17:00,
2013-03-14 08:22:00,26.6,12.2,30.20,North,0,1.6,5.4,54,0.00,,,0.00,WUHU216TE923,2013-03-14 12:22:00,
2013-03-14 08:27:00,26.6,12.2,30.20,North,0,1.6,5.4,54,0.00,,,0.00,WUHU216TE923,2013-03-14 12:27:00,
2013-03-14 08:32:00,27.7,12.8,30.19,WSW,248,1.1,5.4,53,0.00,,,0.00,WUHU216TE923,2013-03-14 12:32:00,
2013-03-14 08:37:00,28.6,13.2,30.19,North,0,1.0,1.2,52,0.00,,,0.00,WUHU216TE923,2013-03-14 12:37:00,
2013-03-14 08:42:00,30.4,13.9,30.19,West,270,1.4,1.6,50,0.00,,,0.00,WUHU216TE923,2013-03-14 12:42:00,
2013-03-14 08:47:00,30.4,13.9,30.19,West,270,1.4,1.6,50,0.00,,,0.00,WUHU216TE923,2013-03-14 12:47:00,
2013-03-14 08:52:00,31.8,14.2,30.19,NNW,338,0.6,0.7,48,0.00,,,0.00,WUHU216TE923,2013-03-14 12:52:00,
2013-03-14 08:57:00,31.8,14.2,30.19,NNW,338,0.6,0.7,48,0.00,,,0.00,WUHU216TE923,2013-03-14 12:57:00,
2013-03-14 09:02:00,32.7,13.6,30.19,NE,45,1.2,3.5,45,0.00,,,0.00,WUHU216TE923,2013-03-14 13:02:00,
2013-03-14 09:07:00,32.7,13.6,30.19,NE,45,1.2,3.5,45,0.00,,,0.00,WUHU216TE923,2013-03-14 13:07:00,
2013-03-14 09:12:00,33.4,14.2,30.20,NW,315,1.1,1.6,45,0.00,,,0.00,WUHU216TE923,2013-03-14 13:12:00,
2013-03-14 09:17:00,33.4,14.2,30.20,NW,315,1.1,1.6,45,0.00,,,0.00,WUHU216TE923,2013-03-14 13:17:00,
2013-03-14 09:22:00,35.8,15.3,30.20,NNW,338,1.8,4.0,43,0.00,,,0.00,WUHU216TE923,2013-03-14 13:22:00,
2013-03-14 09:27:00,35.8,15.3,30.20,NNW,338,1.8,4.0,43,0.00,,,0.00,WUHU216TE923,2013-03-14 13:27:00,
2013-03-14 09:32:00,35.4,14.4,30.20,NNE,23,2.1,3.0,42,0.00,,,0.00,WUHU216TE923,2013-03-14 13:32:00,
2013-03-14 09:37:00,35.4,14.4,30.20,NNE,23,2.1,3.0,42,0.00,,,0.00,WUHU216TE923,2013-03-14 13:37:00,
2013-03-14 09:42:00,36.7,15.0,30.20,NW,315,2.0,2.7,41,0.00,,,0.00,WUHU216TE923,2013-03-14 13:42:00,
2013-03-14 09:47:00,36.7,15.0,30.20,NW,315,2.0,2.7,41,0.00,,,0.00,WUHU216TE923,2013-03-14 13:47:00,
2013-03-14 09:52:00,37.2,14.3,30.21,North,0,2.5,2.7,39,0.00,,,0.00,WUHU216TE923,2013-03-14 13:52:00,
2013-03-14 09:57:00,37.2,14.3,30.21,North,0,2.5,2.7,39,0.00,,,0.00,WUHU216TE923,2013-03-14 13:57:00,
2013-03-14 10:02:00,37.4,12.6,30.21,NW,315,2.3,6.0,36,0.00,,,0.00,WUHU216TE923,2013-03-14 14:02:00,
2013-03-14 10:07:00,37.4,12.6,30.21,NW,315,2.3,6.0,36,0.00,,,0.00,WUHU216TE923,2013-03-14 14:07:00,
2013-03-14 10:12:00,38.7,13.1,30.22,NNE,23,1.5,2.0,35,0.00,,,0.00,WUHU216TE923,2013-03-14 14:12:00,
2013-03-14 10:17:00,38.7,13.1,30.22,NNE,23,1.5,2.0,35,0.00,,,0.00,WUHU216TE923,2013-03-14 14:17:00,
2013-03-14 10:22:00,38.5,11.6,30.22,NNE,23,2.4,4.7,33,0.00,,,0.00,WUHU216TE923,2013-03-14 14:22:00,
2013-03-14 10:27:00,38.5,11.6,30.22,NNE,23,2.4,4.7,33,0.00,,,0.00,WUHU216TE923,2013-03-14 14:27:00,
2013-03-14 10:32:00,39.7,12.7,30.22,NE,45,2.7,4.8,33,0.00,,,0.00,WUHU216TE923,2013-03-14 14:32:00,
2013-03-14 10:37:00,39.7,12.7,30.22,NE,45,2.7,4.8,33,0.00,,,0.00,WUHU216TE923,2013-03-14 14:37:00,
2013-03-14 10:42:00,39.7,11.3,30.22,NNE,23,2.4,3.4,31,0.00,,,0.00,WUHU216TE923,2013-03-14 14:42:00,
2013-03-14 10:47:00,39.7,11.3,30.22,NNE,23,2.4,3.4,31,0.00,,,0.00,WUHU216TE923,2013-03-14 14:47:00,
2013-03-14 10:52:00,40.5,12.0,30.23,North,0,2.5,3.8,31,0.00,,,0.00,WUHU216TE923,2013-03-14 14:52:00,
2013-03-14 10:57:00,40.5,12.0,30.23,North,0,2.5,3.8,31,0.00,,,0.00,WUHU216TE923,2013-03-14 14:57:00,
2013-03-14 11:02:00,39.9,10.7,30.23,SE,135,2.4,2.9,30,0.00,,,0.00,WUHU216TE923,2013-03-14 15:02:00,
2013-03-14 11:07:00,39.9,10.7,30.23,SE,135,2.4,2.9,30,0.00,,,0.00,WUHU216TE923,2013-03-14 15:07:00,
2013-03-14 11:12:00,40.5,11.3,30.22,NE,45,2.3,3.2,30,0.00,,,0.00,WUHU216TE923,2013-03-14 15:12:00,
2013-03-14 11:17:00,40.5,11.3,30.22,NE,45,2.3,3.2,30,0.00,,,0.00,WUHU216TE923,2013-03-14 15:17:00,
2013-03-14 11:22:00,41.4,12.0,30.22,NNE,23,1.8,2.0,30,0.00,,,0.00,WUHU216TE923,2013-03-14 15:22:00,
2013-03-14 11:27:00,41.4,12.0,30.22,NNE,23,1.8,2.0,30,0.00,,,0.00,WUHU216TE923,2013-03-14 15:27:00,
2013-03-14 11:32:00,42.3,12.8,30.21,WSW,248,1.8,3.1,30,0.00,,,0.00,WUHU216TE923,2013-03-14 15:32:00,
2013-03-14 11:37:00,42.3,12.8,30.21,WSW,248,1.8,3.1,30,0.00,,,0.00,WUHU216TE923,2013-03-14 15:37:00,
2013-03-14 11:42:00,42.4,12.2,30.21,NE,45,2.4,4.9,29,0.00,,,0.00,WUHU216TE923,2013-03-14 15:42:00,
2013-03-14 11:47:00,42.4,12.2,30.21,NE,45,2.4,4.9,29,0.00,,,0.00,WUHU216TE923,2013-03-14 15:47:00,
2013-03-14 11:52:00,43.2,12.1,30.20,NNW,338,2.3,4.7,28,0.00,,,0.00,WUHU216TE923,2013-03-14 15:52:00,
2013-03-14 11:57:00,43.2,12.1,30.20,NNW,338,2.3,4.7,28,0.00,,,0.00,WUHU216TE923,2013-03-14 15:57:00,
2013-03-14 12:02:00,44.4,11.5,30.20,ENE,68,2.8,5.1,26,0.00,,,0.00,WUHU216TE923,2013-03-14 16:02:00,
2013-03-14 12:07:00,44.4,11.5,30.20,ENE,68,2.8,5.1,26,0.00,,,0.00,WUHU216TE923,2013-03-14 16:07:00,
2013-03-14 12:12:00,44.6,10.8,30.22,NNW,338,2.8,2.8,25,0.00,,,0.00,WUHU216TE923,2013-03-14 16:12:00,
2013-03-14 12:17:00,44.6,10.8,30.22,NNW,338,2.8,2.8,25,0.00,,,0.00,WUHU216TE923,2013-03-14 16:17:00,
2013-03-14 12:22:00,46.9,13.6,30.22,West,270,1.8,3.4,26,0.00,,,0.00,WUHU216TE923,2013-03-14 16:22:00,
2013-03-14 12:27:00,46.9,13.6,30.22,West,270,1.8,3.4,26,0.00,,,0.00,WUHU216TE923,2013-03-14 16:27:00,
2013-03-14 12:32:00,47.7,11.6,30.22,North,0,2.6,3.9,23,0.00,,,0.00,WUHU216TE923,2013-03-14 16:32:00,
2013-03-14 12:37:00,47.7,11.6,30.22,North,0,2.6,3.9,23,0.00,,,0.00,WUHU216TE923,2013-03-14 16:37:00,
2013-03-14 12:42:00,48.2,11.0,30.22,West,270,2.8,7.7,22,0.00,,,0.00,WUHU216TE923,2013-03-14 16:42:00,
2013-03-14 12:47:00,48.2,11.0,30.22,West,270,2.8,7.7,22,0.00,,,0.00,WUHU216TE923,2013-03-14 16:47:00,
2013-03-14 12:52:00,49.6,12.2,30.22,NW,315,1.9,2.5,22,0.00,,,0.00,WUHU216TE923,2013-03-14 16:52:00,
2013-03-14 12:57:00,49.6,12.2,30.22,NW,315,1.9,2.5,22,0.00,,,0.00,WUHU216TE923,2013-03-14 16:57:00,
2013-03-14 13:03:00,49.1,10.7,30.22,West,270,2.2,2.4,21,0.00,,,0.00,WUHU216TE923,2013-03-14 17:03:00,
2013-03-14 13:08:00,49.1,10.7,30.22,West,270,2.2,2.4,21,0.00,,,0.00,WUHU216TE923,2013-03-14 17:08:00,
2013-03-14 13:13:00,50.5,11.9,30.21,NE,45,2.6,5.6,21,0.00,,,0.00,WUHU216TE923,2013-03-14 17:13:00,
2013-03-14 13:18:00,50.5,11.9,30.21,NE,45,2.6,5.6,21,0.00,,,0.00,WUHU216TE923,2013-03-14 17:18:00,
2013-03-14 13:23:00,52.2,13.3,30.21,North,0,1.5,1.9,21,0.00,,,0.00,WUHU216TE923,2013-03-14 17:23:00,
2013-03-14 13:28:00,52.5,12.5,30.19,ESE,113,1.9,2.2,20,0.00,,,0.00,WUHU216TE923,2013-03-14 17:28:00,
2013-03-14 13:33:00,51.6,11.7,30.19,NE,45,2.1,4.6,20,0.00,,,0.00,WUHU216TE923,2013-03-14 17:33:00,
2013-03-14 13:38:00,51.6,11.7,30.19,NE,45,2.1,4.6,20,0.00,,,0.00,WUHU216TE923,2013-03-14 17:38:00,
2013-03-14 13:43:00,53.1,14.1,30.19,North,0,1.5,2.2,21,0.00,,,0.00,WUHU216TE923,2013-03-14 17:43:00,
2013-03-14 13:48:00,53.2,13.1,30.19,NNE,23,2.2,3.5,20,0.00,,,0.00,WUHU216TE923,2013-03-14 17:48:00,
2013-03-14 13:53:00,53.8,13.6,30.19,NNW,338,2.7,3.5,20,0.00,,,0.00,WUHU216TE923,2013-03-14 17:53:00,
2013-03-14 13:58:00,53.1,13.0,30.19,NNE,23,2.6,2.7,20,0.00,,,0.00,WUHU216TE923,2013-03-14 17:58:00,
2013-03-14 14:03:00,53.4,13.2,30.19,NE,45,2.5,5.2,20,0.00,,,0.00,WUHU216TE923,2013-03-14 18:03:00,
2013-03-14 14:08:00,53.6,13.4,30.19,NNE,23,2.4,5.2,20,0.00,,,0.00,WUHU216TE923,2013-03-14 18:08:00,
2013-03-14 14:13:00,53.2,13.1,30.19,WSW,248,2.5,3.6,20,0.00,,,0.00,WUHU216TE923,2013-03-14 18:13:00,
2013-03-14 14:18:00,53.2,13.1,30.19,NNE,23,2.3,3.4,20,0.00,,,0.00,WUHU216TE923,2013-03-14 18:18:00,
2013-03-14 14:23:00,53.1,9.4,30.19,East,90,2.2,3.4,17,0.00,,,0.00,WUHU216TE923,2013-03-14 18:23:00,
2013-03-14 14:28:00,54.0,11.4,30.18,ENE,68,2.3,3.6,18,0.00,,,0.00,WUHU216TE923,2013-03-14 18:28:00,
2013-03-14 14:33:00,54.1,11.5,30.18,East,90,2.2,3.6,18,0.00,,,0.00,WUHU216TE923,2013-03-14 18:33:00,
2013-03-14 14:38:00,54.0,8.7,30.18,NNE,23,2.5,6.0,16,0.00,,,0.00,WUHU216TE923,2013-03-14 18:38:00,
2013-03-14 14:43:00,53.1,13.0,30.18,West,270,2.8,6.0,20,0.00,,,0.00,WUHU216TE923,2013-03-14 18:43:00,
2013-03-14 14:48:00,51.6,5.4,30.17,NNE,23,2.6,3.5,15,0.00,,,0.00,WUHU216TE923,2013-03-14 18:48:00,
2013-03-14 14:53:00,52.7,9.0,30.17,NNE,23,2.4,4.1,17,0.00,,,0.00,WUHU216TE923,2013-03-14 18:53:00,
2013-03-14 14:58:00,53.4,13.2,30.17,SW,225,2.7,4.1,20,0.00,,,0.00,WUHU216TE923,2013-03-14 18:58:00,
2013-03-14 15:03:00,52.9,9.2,30.17,NNW,338,2.9,3.7,17,0.00,,,0.00,WUHU216TE923,2013-03-14 19:03:00,
2013-03-14 15:08:00,52.5,8.9,30.16,NNE,23,2.5,3.7,17,0.00,,,0.00,WUHU216TE923,2013-03-14 19:08:00,
2013-03-14 15:13:00,52.7,12.7,30.16,NNE,23,2.5,4.4,20,0.00,,,0.00,WUHU216TE923,2013-03-14 19:13:00,
2013-03-14 15:18:00,52.0,12.1,30.16,NE,45,2.6,4.4,20,0.00,,,0.00,WUHU216TE923,2013-03-14 19:18:00,
2013-03-14 15:23:00,51.3,9.2,30.16,NNE,23,2.6,2.6,18,0.00,,,0.00,WUHU216TE923,2013-03-14 19:23:00,
2013-03-14 15:28:00,52.7,12.7,30.15,NW,315,2.4,2.8,20,0.00,,,0.00,WUHU216TE923,2013-03-14 19:28:00,
2013-03-14 15:33:00,52.3,12.3,30.15,NE,45,2.2,2.9,20,0.00,,,0.00,WUHU216TE923,2013-03-14 19:33:00,
2013-03-14 15:38:00,52.0,12.1,30.15,NNW,338,2.1,4.8,20,0.00,,,0.00,WUHU216TE923,2013-03-14 19:38:00,
2013-03-14 15:43:00,52.0,8.5,30.15,NNE,23,2.3,4.8,17,0.00,,,0.00,WUHU216TE923,2013-03-14 19:43:00,
2013-03-14 15:48:00,51.4,9.2,30.14,NNE,23,2.8,3.9,18,0.00,,,0.00,WUHU216TE923,2013-03-14 19:48:00,
2013-03-14 15:53:00,52.0,8.5,30.14,North,0,2.7,3.9,17,0.00,,,0.00,WUHU216TE923,2013-03-14 19:53:00,
2013-03-14 15:58:00,51.3,9.2,30.14,NNE,23,2.8,3.6,18,0.00,,,0.00,WUHU216TE923,2013-03-14 19:58:00,
2013-03-14 16:03:00,51.3,9.2,30.14,NNE,23,2.4,3.6,18,0.00,,,0.00,WUHU216TE923,2013-03-14 20:03:00,
2013-03-14 16:08:00,51.1,9.0,30.13,NE,45,2.0,2.4,18,0.00,,,0.00,WUHU216TE923,2013-03-14 20:08:00,
2013-03-14 16:13:00,51.4,9.2,30.13,NNW,338,2.2,2.2,18,0.00,,,0.00,WUHU216TE923,2013-03-14 20:13:00,
2013-03-14 16:18:00,51.8,8.3,30.13,NNE,23,2.1,3.4,17,0.00,,,0.00,WUHU216TE923,2013-03-14 20:18:00,
2013-03-14 16:23:00,51.4,9.2,30.13,NNE,23,2.4,4.7,18,0.00,,,0.00,WUHU216TE923,2013-03-14 20:23:00,
2013-03-14 16:28:00,51.1,11.3,30.14,West,270,3.3,4.7,20,0.00,,,0.00,WUHU216TE923,2013-03-14 20:28:00,
2013-03-14 16:33:00,50.7,8.7,30.14,ENE,68,3.0,3.3,18,0.00,,,0.00,WUHU216TE923,2013-03-14 20:33:00,
2013-03-14 16:38:00,50.7,8.7,30.14,NNW,338,2.1,3.0,18,0.00,,,0.00,WUHU216TE923,2013-03-14 20:38:00,
2013-03-14 16:43:00,50.7,11.0,30.14,North,0,1.9,2.1,20,0.00,,,0.00,WUHU216TE923,2013-03-14 20:43:00,
2013-03-14 16:48:00,50.2,10.6,30.14,NE,45,2.1,2.2,20,0.00,,,0.00,WUHU216TE923,2013-03-14 20:48:00,
2013-03-14 16:53:00,50.2,10.6,30.14,NW,315,2.4,2.4,20,0.00,,,0.00,WUHU216TE923,2013-03-14 20:53:00,
2013-03-14 16:58:00,50.0,10.4,30.14,NE,45,2.5,5.8,20,0.00,,,0.00,WUHU216TE923,2013-03-14 20:58:00,
2013-03-14 17:03:00,50.0,10.4,30.14,West,270,2.7,5.8,20,0.00,,,0.00,WUHU216TE923,2013-03-14 21:03:00,
2013-03-14 17:08:00,49.8,9.1,30.13,NNE,23,2.5,3.2,19,0.00,,,0.00,WUHU216TE923,2013-03-14 21:08:00,
2013-03-14 17:13:00,49.5,6.4,30.13,ENE,68,2.5,3.8,17,0.00,,,0.00,WUHU216TE923,2013-03-14 21:13:00,
2013-03-14 17:18:00,49.6,6.5,30.13,NE,45,3.0,5.7,17,0.00,,,0.00,WUHU216TE923,2013-03-14 21:18:00,
2013-03-14 17:23:00,49.8,9.1,30.13,NNE,23,3.1,5.7,19,0.00,,,0.00,WUHU216TE923,2013-03-14 21:23:00,
2013-03-14 17:28:00,49.3,6.3,30.13,NNE,23,3.2,3.8,17,0.00,,,0.00,WUHU216TE923,2013-03-14 21:28:00,
2013-03-14 17:33:00,49.1,6.1,30.13,NNW,338,3.2,4.0,17,0.00,,,0.00,WUHU216TE923,2013-03-14 21:33:00,
2013-03-14 17:38:00,48.6,5.7,30.13,NNE,23,2.8,4.0,17,0.00,,,0.00,WUHU216TE923,2013-03-14 21:38:00,
2013-03-14 17:43:00,48.4,5.5,30.13,NNE,23,2.7,3.1,17,0.00,,,0.00,WUHU216TE923,2013-03-14 21:43:00,
2013-03-14 17:48:00,48.2,5.4,30.11,NW,315,2.3,4.7,17,0.00,,,0.00,WUHU216TE923,2013-03-14 21:48:00,
2013-03-14 17:53:00,48.4,5.5,30.11,NNE,23,1.7,4.7,17,0.00,,,0.00,WUHU216TE923,2013-03-14 21:53:00,
2013-03-14 17:58:00,48.2,5.4,30.11,NNW,338,1.9,2.8,17,0.00,,,0.00,WUHU216TE923,2013-03-14 21:58:00,
2013-03-14 18:03:00,48.0,5.2,30.11,NNW,338,2.3,3.1,17,0.00,,,0.00,WUHU216TE923,2013-03-14 22:03:00,
2013-03-14 18:08:00,47.8,5.0,30.12,NW,315,2.9,5.4,17,0.00,,,0.00,WUHU216TE923,2013-03-14 22:08:00,
2013-03-14 18:13:00,47.7,4.9,30.12,North,0,2.8,5.4,17,0.00,,,0.00,WUHU216TE923,2013-03-14 22:13:00,
2013-03-14 18:18:00,47.5,4.8,30.12,North,0,2.1,5.3,17,0.00,,,0.00,WUHU216TE923,2013-03-14 22:18:00,
2013-03-14 18:23:00,47.3,4.6,30.12,NNW,338,2.2,5.3,17,0.00,,,0.00,WUHU216TE923,2013-03-14 22:23:00,
2013-03-14 18:28:00,47.1,4.5,30.13,NNE,23,3.0,3.8,17,0.00,,,0.00,WUHU216TE923,2013-03-14 22:28:00,
2013-03-14 18:33:00,46.9,6.7,30.13,NNE,23,3.0,5.0,19,0.00,,,0.00,WUHU216TE923,2013-03-14 22:33:00,
2013-03-14 18:38:00,46.9,6.7,30.13,NE,45,3.2,5.0,19,0.00,,,0.00,WUHU216TE923,2013-03-14 22:38:00,
2013-03-14 18:43:00,46.9,6.7,30.13,NNW,338,3.1,3.2,19,0.00,,,0.00,WUHU216TE923,2013-03-14 22:43:00,
2013-03-14 18:48:00,47.1,4.5,30.12,NNE,23,2.3,3.3,17,0.00,,,0.00,WUHU216TE923,2013-03-14 22:48:00,
2013-03-14 18:53:00,47.7,7.4,30.12,ENE,68,2.6,3.6,19,0.00,,,0.00,WUHU216TE923,2013-03-14 22:53:00,
2013-03-14 18:58:00,47.1,6.9,30.12,North,0,2.7,3.6,19,0.00,,,0.00,WUHU216TE923,2013-03-14 22:58:00,
2013-03-14 19:03:00,46.9,6.7,30.12,NE,45,2.2,2.8,19,0.00,,,0.00,WUHU216TE923,2013-03-14 23:03:00,
2013-03-14 19:08:00,46.6,6.5,30.12,NNE,23,1.7,2.4,19,0.00,,,0.00,WUHU216TE923,2013-03-14 23:08:00,
2013-03-14 19:13:00,46.2,7.2,30.12,NNE,23,1.3,1.7,20,0.00,,,0.00,WUHU216TE923,2013-03-14 23:13:00,
2013-03-14 19:18:00,45.9,8.1,30.12,NE,45,0.4,1.4,21,0.00,,,0.00,WUHU216TE923,2013-03-14 23:18:00,
2013-03-14 19:23:00,45.5,7.7,30.12,NNE,23,0.3,1.4,21,0.00,,,0.00,WUHU216TE923,2013-03-14 23:23:00,
2013-03-14 19:29:00,45.1,7.4,30.12,NNE,23,0.3,1.2,21,0.00,,,0.00,WUHU216TE923,2013-03-14 23:29:00,
2013-03-14 19:34:00,45.0,7.3,30.12,North,0,0.3,1.2,21,0.00,,,0.00,WUHU216TE923,2013-03-14 23:34:00,
2013-03-14 19:39:00,44.4,7.8,30.12,NNE,23,0.4,2.2,22,0.00,,,0.00,WUHU216TE923,2013-03-14 23:39:00,
2013-03-14 19:41:00,44.2,8.6,30.12,NNW,338,0.2,0.2,23,0.00,,,0.00,WUHU216TE923,2013-03-14 23:41:00,
2013-03-14 19:44:00,44.2,8.6,30.12,NNW,338,0.2,2.2,23,0.00,,,0.00,WUHU216TE923,2013-03-14 23:44:00,
2013-03-14 19:49:00,44.2,8.6,30.12,NNW,338,0.2,0.2,23,0.00,,,0.00,WUHU216TE923,2013-03-14 23:49:00,
2013-03-14 19:54:00,43.7,9.1,30.11,NNW,338,0.0,0.0,24,0.00,,,0.00,WUHU216TE923,2013-03-14 23:54:00,
2013-03-14 19:59:00,43.3,9.7,30.11,NNW,338,0.0,0.0,25,0.00,,,0.00,WUHU216TE923,2013-03-14 23:59:00,
2013-03-14 20:04:00,43.2,10.4,30.11,NNW,338,0.0,0.0,26,0.00,,,0.00,WUHU216TE923,2013-03-15 00:04:00,
2013-03-14 20:09:00,42.8,10.9,30.11,NNW,338,0.0,0.0,27,0.00,,,0.00,WUHU216TE923,2013-03-15 00:09:00,
2013-03-14 20:13:00,42.4,11.4,30.11,NNW,338,0.0,0.0,28,0.00,,,0.00,WUHU216TE923,2013-03-15 00:13:00,
2013-03-14 20:19:00,42.3,11.3,30.11,NNW,338,0.0,0.0,28,0.00,,,0.00,WUHU216TE923,2013-03-15 00:19:00,
2013-03-14 20:24:00,42.1,11.9,30.11,NNW,338,0.0,0.0,29,0.00,,,0.00,WUHU216TE923,2013-03-15 00:24:00,
2013-03-14 20:29:00,41.7,12.3,30.11,NNW,338,0.0,0.0,30,0.00,,,0.00,WUHU216TE923,2013-03-15 00:29:00,
2013-03-14 20:34:00,41.5,12.1,30.11,NNW,338,0.0,0.0,30,0.00,,,0.00,WUHU216TE923,2013-03-15 00:34:00,
2013-03-14 20:39:00,41.7,12.3,30.11,NNW,338,0.0,0.0,30,0.00,,,0.00,WUHU216TE923,2013-03-15 00:39:00,
2013-03-14 20:44:00,41.7,12.3,30.11,NNW,338,0.0,0.0,30,0.00,,,0.00,WUHU216TE923,2013-03-15 00:44:00,
2013-03-14 20:49:00,41.9,12.5,30.11,NNW,338,0.0,0.0,30,0.00,,,0.00,WUHU216TE923,2013-03-15 00:49:00,
2013-03-14 20:54:00,41.9,12.5,30.11,NNW,338,0.0,0.0,30,0.00,,,0.00,WUHU216TE923,2013-03-15 00:54:00,
2013-03-14 20:59:00,42.1,12.7,30.11,NNW,338,0.0,0.0,30,0.00,,,0.00,WUHU216TE923,2013-03-15 00:59:00,
2013-03-14 21:04:00,42.1,12.7,30.11,NNW,338,0.0,0.0,30,0.00,,,0.00,WUHU216TE923,2013-03-15 01:04:00,
2013-03-14 21:09:00,42.1,12.7,30.13,NNW,338,0.0,0.0,30,0.00,,,0.00,WUHU216TE923,2013-03-15 01:09:00,
2013-03-14 21:14:00,42.1,13.4,30.13,NNW,338,0.0,0.0,31,0.00,,,0.00,WUHU216TE923,2013-03-15 01:14:00,
2013-03-14 21:19:00,42.1,13.4,30.13,NNW,338,0.0,0.0,31,0.00,,,0.00,WUHU216TE923,2013-03-15 01:19:00,
2013-03-14 21:24:00,41.9,13.2,30.13,NNW,338,0.0,0.0,31,0.00,,,0.00,WUHU216TE923,2013-03-15 01:24:00,
2013-03-14 21:29:00,41.9,13.2,30.13,NNW,338,0.0,0.0,31,0.00,,,0.00,WUHU216TE923,2013-03-15 01:29:00,
2013-03-14 21:34:00,41.9,13.2,30.13,NNW,338,0.0,0.0,31,0.00,,,0.00,WUHU216TE923,2013-03-15 01:34:00,
2013-03-14 21:39:00,42.1,14.1,30.13,NNW,338,0.0,0.0,32,0.00,,,0.00,WUHU216TE923,2013-03-15 01:39:00,
2013-03-14 21:44:00,42.1,14.1,30.13,NNW,338,0.0,0.0,32,0.00,,,0.00,WUHU216TE923,2013-03-15 01:44:00,
2013-03-14 21:49:00,42.3,13.6,30.14,SE,135,0.2,3.5,31,0.00,,,0.00,WUHU216TE923,2013-03-15 01:49:00,
2013-03-14 21:54:00,42.6,13.1,30.14,WNW,293,1.1,3.5,30,0.00,,,0.00,WUHU216TE923,2013-03-15 01:54:00,
2013-03-14 21:59:00,42.8,14.7,30.14,WNW,293,1.9,1.9,32,0.00,,,0.00,WUHU216TE923,2013-03-15 01:59:00,
2013-03-14 22:04:00,42.8,14.7,30.14,WSW,248,1.0,1.9,32,0.00,,,0.00,WUHU216TE923,2013-03-15 02:04:00,
2013-03-14 22:09:00,42.8,14.7,30.14,NW,315,0.7,1.4,32,0.00,,,0.00,WUHU216TE923,2013-03-15 02:09:00,
2013-03-14 22:14:00,42.6,13.1,30.14,North,0,1.2,4.1,30,0.00,,,0.00,WUHU216TE923,2013-03-15 02:14:00,
2013-03-14 22:19:00,42.4,13.7,30.14,NNW,338,1.4,4.1,31,0.00,,,0.00,WUHU216TE923,2013-03-15 02:19:00,
2013-03-14 22:24:00,42.4,13.7,30.14,NW,315,1.3,1.7,31,0.00,,,0.00,WUHU216TE923,2013-03-15 02:24:00,
2013-03-14 22:29:00,42.1,14.1,30.15,SW,225,1.0,1.8,32,0.00,,,0.00,WUHU216TE923,2013-03-15 02:29:00,
2013-03-14 22:34:00,41.9,13.9,30.15,WNW,293,1.2,1.8,32,0.00,,,0.00,WUHU216TE923,2013-03-15 02:34:00,
2013-03-14 22:39:00,41.7,15.1,30.15,WNW,293,1.4,1.8,34,0.00,,,0.00,WUHU216TE923,2013-03-15 02:39:00,
2013-03-14 22:44:00,41.5,15.6,30.15,West,270,1.5,1.9,35,0.00,,,0.00,WUHU216TE923,2013-03-15 02:44:00,
2013-03-14 22:49:00,41.4,16.8,30.15,NW,315,1.2,1.9,37,0.00,,,0.00,WUHU216TE923,2013-03-15 02:49:00,
2013-03-14 22:54:00,41.5,16.9,30.15,WSW,248,0.8,1.2,37,0.00,,,0.00,WUHU216TE923,2013-03-15 02:54:00,
2013-03-14 22:59:00,41.4,17.5,30.15,NW,315,0.0,0.8,38,0.00,,,0.00,WUHU216TE923,2013-03-15 02:59:00,
2013-03-14 23:04:00,41.2,17.9,30.15,NNE,23,0.0,0.0,39,0.00,,,0.00,WUHU216TE923,2013-03-15 03:04:00,
2013-03-14 23:09:00,41.2,19.1,30.15,NNW,338,0.9,2.4,41,0.00,,,0.00,WUHU216TE923,2013-03-15 03:09:00,
2013-03-14 23:14:00,41.4,19.8,30.15,NE,45,1.6,2.4,42,0.00,,,0.00,WUHU216TE923,2013-03-15 03:14:00,
2013-03-14 23:19:00,41.2,19.7,30.15,NNE,23,1.4,1.6,42,0.00,,,0.00,WUHU216TE923,2013-03-15 03:19:00,
2013-03-14 23:24:00,41.0,19.5,30.15,SW,225,0.6,1.4,42,0.00,,,0.00,WUHU216TE923,2013-03-15 03:24:00,
2013-03-14 23:29:00,41.0,19.5,30.13,NW,315,0.3,0.6,42,0.00,,,0.00,WUHU216TE923,2013-03-15 03:29:00,
2013-03-14 23:34:00,40.8,19.9,30.13,NNE,23,0.4,1.2,43,0.00,,,0.00,WUHU216TE923,2013-03-15 03:34:00,
2013-03-14 23:39:00,41.0,20.0,30.13,South,180,0.7,1.2,43,0.00,,,0.00,WUHU216TE923,2013-03-15 03:39:00,
2013-03-14 23:44:00,40.8,19.9,30.13,NNE,23,0.5,1.1,43,0.00,,,0.00,WUHU216TE923,2013-03-15 03:44:00,
2013-03-14 23:49:00,40.8,20.4,30.13,NNE,23,0.3,1.2,44,0.00,,,0.00,WUHU216TE923,2013-03-15 03:49:00,
2013-03-14 23:54:00,40.8,20.4,30.13,ENE,68,0.3,1.2,44,0.00,,,0.00,WUHU216TE923,2013-03-15 03:54:00,
2013-03-14 23:59:00,40.8,21.0,30.13,NNE,23,0.2,1.2,45,0.00,,,0.00,WUHU216TE923,2013-03-15 03:59:00,